»·PEaware :: FFT2127 KLAS-KSAN

FFT2127 :: KLAS-KSAN

FLIGHT INFORMATION

Flight Status: Arrived
Operator:
Frontier Airlines
More flights by this operator :: More flights under this callsign
Pilot: Andrew J. (13363)
Aircraft: AIRBUS A321
(A321)
More flights by this aircraft type
Origin: KLAS McCarran Intl
United States
Destination: KSAN San Diego Intl-Lindbergh
United States
More flights between these airports :: More routes between these airports
Route: BOACH8 LVELL LUCKI1
File this flight plan on PilotEdge
Remarks:
Altitude:
(Current/Filed)
26,000ft
Speed:
(Current/Filed)
458kts
Departed: 01-Sep-20 05:40 PM
Arrived: 01-Sep-20 06:23 PM
Distance/Time
Traveled:
225nm/0:43
Distance/Time
To Go:
Arrived

Flight Plot

Page will automatically refresh every two minutes.

Flight plan parsing failed; only flown route is shown


Map Options




Map Legend


Flown Route
Filed Route
Departure Airport
Arrival Airport
Navaid (VOR, NDB)
Fix

Horizontal Profiles

Position Reports

Time Latitude Longitude Heading Altitude Ground
Speed
01-Sep-20 17:02 36.082918 -115.136887 142 2187ft 0kts
01-Sep-20 17:03 36.082918 -115.136887 142 2187ft 0kts
01-Sep-20 17:04 36.082918 -115.136887 142 2187ft 0kts
01-Sep-20 17:05 36.082918 -115.136887 142 2187ft 0kts
01-Sep-20 17:06 36.082918 -115.136887 142 2187ft 0kts
01-Sep-20 17:07 36.082918 -115.136887 142 2187ft 0kts
01-Sep-20 17:08 36.082918 -115.136887 142 2187ft 0kts
01-Sep-20 17:09 36.082918 -115.136887 142 2187ft 0kts
01-Sep-20 17:10 36.082918 -115.136887 142 2187ft 0kts
01-Sep-20 17:11 36.082918 -115.136887 142 2187ft 0kts
01-Sep-20 17:12 36.082918 -115.136887 142 2187ft 0kts
01-Sep-20 17:13 36.082918 -115.136887 142 2187ft 0kts
01-Sep-20 17:14 36.082918 -115.136887 142 2187ft 0kts
01-Sep-20 17:15 36.082918 -115.136887 142 2187ft 0kts
01-Sep-20 17:16 36.082918 -115.136887 142 2187ft 0kts
01-Sep-20 17:17 36.082918 -115.136887 142 2187ft 0kts
01-Sep-20 17:18 36.082918 -115.136887 142 2187ft 0kts
01-Sep-20 17:19 36.082918 -115.136887 142 2187ft 0kts
01-Sep-20 17:20 36.082918 -115.136887 142 2187ft 0kts
01-Sep-20 17:21 36.082918 -115.136887 142 2187ft 0kts
01-Sep-20 17:22 36.082918 -115.136887 142 2187ft 0kts
01-Sep-20 17:23 36.082918 -115.136887 142 2187ft 0kts
01-Sep-20 17:24 36.082918 -115.136887 142 2187ft 0kts
01-Sep-20 17:25 36.082919 -115.136887 142 2187ft 0kts
01-Sep-20 17:26 36.082935 -115.136903 143 2187ft 2kts
01-Sep-20 17:27 36.083418 -115.137343 148 2187ft 2kts
01-Sep-20 17:28 36.083937 -115.137718 143 2187ft 2kts
01-Sep-20 17:29 36.084158 -115.138352 91 2187ft 2kts
01-Sep-20 17:30 36.084159 -115.138616 88 2187ft 0kts
01-Sep-20 17:31 36.084159 -115.138616 88 2187ft 0kts
01-Sep-20 17:32 36.084160 -115.138547 88 2187ft 1kts
01-Sep-20 17:33 36.084439 -115.136816 87 2187ft 9kts
01-Sep-20 17:34 36.083414 -115.133444 133 2187ft 12kts
01-Sep-20 17:35 36.079798 -115.132904 180 2187ft 14kts
01-Sep-20 17:36 36.078303 -115.129401 91 2187ft 15kts
01-Sep-20 17:37 36.078330 -115.124121 89 2187ft 15kts
01-Sep-20 17:38 36.076466 -115.121623 270 2187ft 9kts
01-Sep-20 17:39 36.076396 -115.152088 270 2188ft 173kts
01-Sep-20 17:40 36.076667 -115.212502 269 3557ft 183kts
01-Sep-20 17:41 36.052462 -115.264042 198 4708ft 214kts
01-Sep-20 17:42 35.989926 -115.292325 201 5750ft 268kts
01-Sep-20 17:43 35.914261 -115.308016 185 7678ft 296kts
01-Sep-20 17:44 35.830464 -115.311754 175 9993ft 307kts
01-Sep-20 17:45 35.739572 -115.301197 175 11183ft 355kts
01-Sep-20 17:46 35.637818 -115.295591 183 13178ft 372kts
01-Sep-20 17:47 35.533021 -115.299919 182 15238ft 383kts
01-Sep-20 17:48 35.424469 -115.304238 182 16996ft 399kts
01-Sep-20 17:49 35.311080 -115.308723 182 18553ft 418kts
01-Sep-20 17:50 35.192782 -115.313378 182 20056ft 434kts
01-Sep-20 17:51 35.070918 -115.318156 182 21553ft 446kts
01-Sep-20 17:52 34.945776 -115.323020 182 23053ft 455kts
01-Sep-20 17:53 34.826385 -115.369460 207 24596ft 459kts
01-Sep-20 17:54 34.711494 -115.441746 205 25661ft 472kts
01-Sep-20 17:55 34.591931 -115.513801 205 25906ft 485kts
01-Sep-20 17:56 34.471028 -115.586056 205 25969ft 484kts
01-Sep-20 17:57 34.349992 -115.658135 204 25983ft 484kts
01-Sep-20 17:58 34.228897 -115.730486 204 25985ft 490kts
01-Sep-20 17:59 34.106482 -115.802983 204 25985ft 490kts
01-Sep-20 18:00 33.984373 -115.874980 204 25985ft 490kts
01-Sep-20 18:01 33.861471 -115.947112 204 25983ft 490kts
01-Sep-20 18:02 33.738624 -116.018837 204 25945ft 490kts
01-Sep-20 18:03 33.617051 -116.089787 204 24649ft 485kts
01-Sep-20 18:04 33.498296 -116.158864 205 20707ft 447kts
01-Sep-20 18:05 33.390170 -116.221606 205 18472ft 425kts
01-Sep-20 18:06 33.285473 -116.282190 205 16310ft 413kts
01-Sep-20 18:07 33.183182 -116.341241 206 14140ft 402kts
01-Sep-20 18:08 33.084365 -116.398147 205 12249ft 383kts
01-Sep-20 18:09 32.997634 -116.452634 214 11926ft 332kts
01-Sep-20 18:10 32.929141 -116.520636 220 10815ft 307kts
01-Sep-20 18:11 32.866347 -116.583797 220 9890ft 286kts
01-Sep-20 18:12 32.806053 -116.644444 221 8587ft 283kts
01-Sep-20 18:13 32.755959 -116.714082 242 7181ft 270kts
01-Sep-20 18:14 32.720345 -116.790049 242 5990ft 253kts
01-Sep-20 18:15 32.692077 -116.866173 251 5135ft 247kts
01-Sep-20 18:16 32.673466 -116.939830 275 4395ft 216kts
01-Sep-20 18:17 32.688142 -117.002669 284 3210ft 173kts
01-Sep-20 18:18 32.700528 -117.053765 284 2455ft 160kts
01-Sep-20 18:19 32.712528 -117.103142 283 1473ft 144kts
01-Sep-20 18:20 32.723554 -117.148521 285 749ft 143kts
01-Sep-20 18:21 32.733878 -117.191088 286 22ft 74kts
01-Sep-20 18:22 32.735372 -117.202561 161 19ft 5kts
01-Sep-20 18:23 32.734999 -117.199881 105 19ft 11kts
01-Sep-20 18:24 32.734236 -117.199358 234 19ft 9kts
01-Sep-20 18:25 32.732988 -117.198904 95 19ft 0kts
01-Sep-20 18:26 32.732988 -117.198904 95 19ft 0kts
01-Sep-20 18:27 32.732988 -117.198904 95 19ft 0kts
01-Sep-20 18:28 32.732988 -117.198904 95 19ft 0kts

Navigation Log

Ident Type
Flight plan parsing failed, navigation log unavailable